createdAt,value
2023-11-18T00:00:26.753Z,84.20
2023-11-18T00:01:20.232Z,84.19
2023-11-18T00:01:53.420Z,84.20
2023-11-18T00:02:27.108Z,84.15
2023-11-18T00:03:00.570Z,84.07
2023-11-18T00:03:34.492Z,83.95
2023-11-18T00:04:11.335Z,84.33
2023-11-18T00:04:45.065Z,84.59
2023-11-18T00:05:18.952Z,84.85
2023-11-18T00:05:52.164Z,84.75
2023-11-18T00:06:25.435Z,84.32
2023-11-18T00:07:00.154Z,84.37
2023-11-18T00:07:33.920Z,84.49
2023-11-18T00:08:08.099Z,84.64
2023-11-18T00:08:41.491Z,84.53
2023-11-18T00:09:15.905Z,84.74
2023-11-18T00:09:49.442Z,84.50
2023-11-18T00:10:22.681Z,84.81
2023-11-18T00:10:55.893Z,84.88
2023-11-18T00:11:29.262Z,84.95
2023-11-18T00:12:02.738Z,84.92
2023-11-18T00:12:36.862Z,84.84
2023-11-18T00:13:10.313Z,85.06
2023-11-18T00:13:44.591Z,84.85
2023-11-18T00:14:19.238Z,85.12
2023-11-18T00:14:52.741Z,85.08
2023-11-18T00:15:25.930Z,85.11
2023-11-18T00:15:59.407Z,85.08
2023-11-18T00:16:32.844Z,84.96
2023-11-18T00:17:06.222Z,85.14
2023-11-18T00:17:39.493Z,85.18
2023-11-18T00:18:13.568Z,85.17
2023-11-18T00:18:46.739Z,85.22
2023-11-18T00:19:19.713Z,85.32
2023-11-18T00:19:55.009Z,85.31
2023-11-18T00:20:28.726Z,85.22
2023-11-18T00:21:02.144Z,85.39
2023-11-18T00:21:37.497Z,85.48
2023-11-18T00:22:10.645Z,85.38
2023-11-18T00:22:44.755Z,85.23
2023-11-18T00:23:22.008Z,85.15
2023-11-18T00:23:57.237Z,85.36
2023-11-18T00:24:30.556Z,85.21
2023-11-18T00:25:09.084Z,85.07
2023-11-18T00:25:42.479Z,85.34
2023-11-18T00:26:15.862Z,85.52
2023-11-18T00:26:49.884Z,85.60
2023-11-18T00:27:24.037Z,85.56
2023-11-18T00:27:57.284Z,85.84
2023-11-18T00:28:30.956Z,85.63
2023-11-18T00:29:04.555Z,85.74
2023-11-18T00:29:40.794Z,85.66
2023-11-18T00:30:14.210Z,85.86
2023-11-18T00:30:48.647Z,85.83
2023-11-18T00:31:22.536Z,85.62
2023-11-18T00:31:56.006Z,85.84
2023-11-18T00:32:29.523Z,86.01
2023-11-18T00:33:03.370Z,85.72
2023-11-18T00:33:36.858Z,85.61
2023-11-18T00:34:10.205Z,85.64
2023-11-18T00:34:43.649Z,85.62
2023-11-18T00:35:17.069Z,85.62
2023-11-18T00:35:51.868Z,85.63
2023-11-18T00:36:25.230Z,85.45
2023-11-18T00:36:58.953Z,85.75
2023-11-18T00:37:32.522Z,85.69
2023-11-18T00:38:06.239Z,85.80
2023-11-18T00:38:39.913Z,85.81
2023-11-18T00:39:14.495Z,85.98
2023-11-18T00:39:49.269Z,85.85
2023-11-18T00:40:22.505Z,85.77
2023-11-18T00:40:56.129Z,86.07
2023-11-18T00:41:30.335Z,85.93
2023-11-18T00:42:07.697Z,85.77
2023-11-18T00:42:40.901Z,86.07
2023-11-18T00:43:14.645Z,86.01
2023-11-18T00:43:50.910Z,86.11
2023-11-18T00:44:24.195Z,86.12
2023-11-18T00:44:58.563Z,86.14
2023-11-18T00:45:32.067Z,86.05
2023-11-18T00:46:06.319Z,86.30
2023-11-18T00:46:39.661Z,86.53
2023-11-18T00:47:12.913Z,86.64
2023-11-18T00:47:46.246Z,86.32
2023-11-18T00:48:19.538Z,86.47
2023-11-18T00:48:52.627Z,86.60
2023-11-18T00:49:27.357Z,86.77
2023-11-18T00:50:04.110Z,86.51
2023-11-18T00:50:37.849Z,86.29
2023-11-18T00:51:11.380Z,86.52
2023-11-18T00:51:44.604Z,86.50
2023-11-18T00:52:17.866Z,86.58
2023-11-18T00:52:51.211Z,86.68
2023-11-18T00:53:25.775Z,86.62
2023-11-18T00:54:03.107Z,86.63
2023-11-18T00:54:37.731Z,86.87
2023-11-18T00:55:14.448Z,86.88
2023-11-18T00:55:47.961Z,87.07
2023-11-18T00:56:22.783Z,87.07
2023-11-18T00:56:55.938Z,87.09
2023-11-18T00:57:29.429Z,86.77
2023-11-18T00:58:03.028Z,86.68
2023-11-18T00:58:41.728Z,86.80
2023-11-18T00:59:16.660Z,86.82
2023-11-18T00:59:49.721Z,87.01
2023-11-18T01:00:23.444Z,86.96
2023-11-18T01:00:56.753Z,86.87
2023-11-18T01:01:30.131Z,87.11
2023-11-18T01:02:04.814Z,87.14
2023-11-18T01:02:42.052Z,87.17
2023-11-18T01:03:15.308Z,87.19
2023-11-18T01:03:49.197Z,87.12
2023-11-18T01:04:22.451Z,87.30
2023-11-18T01:04:55.660Z,87.43
2023-11-18T01:05:28.946Z,87.16
2023-11-18T01:06:02.348Z,87.31
2023-11-18T01:06:35.724Z,87.11
2023-11-18T01:07:10.520Z,87.21
2023-11-18T01:07:44.395Z,87.23
2023-11-18T01:08:18.554Z,87.34
2023-11-18T01:08:51.797Z,87.27
2023-11-18T01:09:26.533Z,87.31
2023-11-18T01:10:00.160Z,87.19
2023-11-18T01:10:33.655Z,87.15
2023-11-18T01:11:07.145Z,87.11
2023-11-18T01:11:40.887Z,87.19
2023-11-18T01:12:34.445Z,87.07
2023-11-18T01:13:07.536Z,87.00
2023-11-18T01:13:40.780Z,86.87
2023-11-18T01:14:14.315Z,87.05
2023-11-18T01:14:47.951Z,87.33
2023-11-18T01:15:21.490Z,87.17
2023-11-18T01:15:55.072Z,87.20
2023-11-18T01:16:29.562Z,87.04
2023-11-18T01:17:04.079Z,87.27
2023-11-18T01:17:37.502Z,87.47
2023-11-18T01:18:10.978Z,87.49
2023-11-18T01:18:45.314Z,87.22
2023-11-18T01:19:19.521Z,87.31
2023-11-18T01:19:53.143Z,87.35
2023-11-18T01:20:27.633Z,87.37
2023-11-18T01:21:01.031Z,87.74
2023-11-18T01:21:34.397Z,87.70
2023-11-18T01:22:07.573Z,87.52
2023-11-18T01:22:43.318Z,87.52
2023-11-18T01:23:16.734Z,87.71
2023-11-18T01:23:50.256Z,87.65
2023-11-18T01:24:23.600Z,87.70
2023-11-18T01:24:59.466Z,87.76
2023-11-18T01:25:33.940Z,87.64
2023-11-18T01:26:07.610Z,87.91
2023-11-18T01:26:40.877Z,87.88
2023-11-18T01:27:14.411Z,87.83
2023-11-18T01:27:48.144Z,87.68
2023-11-18T01:28:21.333Z,87.58
2023-11-18T01:28:56.826Z,88.27
2023-11-18T01:29:30.203Z,88.17
2023-11-18T01:30:05.444Z,87.79
2023-11-18T01:30:38.842Z,87.96
2023-11-18T01:31:12.849Z,87.98
2023-11-18T01:31:52.172Z,88.14
2023-11-18T01:32:27.159Z,88.04
2023-11-18T01:33:03.909Z,88.26
2023-11-18T01:33:38.575Z,88.09
2023-11-18T01:34:13.554Z,88.02
2023-11-18T01:34:51.493Z,88.07
2023-11-18T01:35:28.484Z,88.20
2023-11-18T01:36:01.661Z,88.18
2023-11-18T01:36:34.870Z,88.32
2023-11-18T01:37:08.858Z,88.47
2023-11-18T01:37:42.889Z,88.31
2023-11-18T01:38:16.065Z,88.39
2023-11-18T01:38:49.226Z,88.28
2023-11-18T01:39:22.677Z,88.29
2023-11-18T01:39:55.890Z,88.56
2023-11-18T01:40:31.613Z,88.47
2023-11-18T01:41:06.410Z,88.35
2023-11-18T01:41:39.472Z,88.59
2023-11-18T01:42:12.955Z,88.52
2023-11-18T01:42:47.799Z,88.53
2023-11-18T01:43:23.423Z,88.38
2023-11-18T01:43:56.852Z,88.67
2023-11-18T01:44:31.689Z,88.68
2023-11-18T01:45:05.447Z,88.56
2023-11-18T01:45:38.723Z,88.63
2023-11-18T01:46:12.106Z,88.71
2023-11-18T01:46:49.020Z,88.56
2023-11-18T01:47:22.571Z,88.91
2023-11-18T01:47:56.121Z,88.68
2023-11-18T01:48:31.794Z,88.73
2023-11-18T01:49:05.301Z,88.74
2023-11-18T01:49:42.131Z,88.76
2023-11-18T01:50:16.450Z,88.69
2023-11-18T01:50:50.509Z,88.91
2023-11-18T01:51:24.726Z,88.86
2023-11-18T01:51:58.720Z,88.86
2023-11-18T01:52:32.294Z,89.01
2023-11-18T01:53:06.966Z,89.06
2023-11-18T01:53:43.620Z,88.68
2023-11-18T01:54:20.385Z,88.68
2023-11-18T01:54:56.329Z,88.69
2023-11-18T01:55:29.909Z,88.99
2023-11-18T01:56:04.209Z,89.00
2023-11-18T01:56:37.486Z,88.91
2023-11-18T01:57:11.620Z,88.86
2023-11-18T01:57:46.606Z,88.82
2023-11-18T01:58:21.117Z,88.88
2023-11-18T01:58:54.617Z,89.02
2023-11-18T01:59:31.187Z,89.02
2023-11-18T02:00:07.643Z,89.04
2023-11-18T02:00:47.516Z,89.03
2023-11-18T02:01:21.517Z,88.96
2023-11-18T02:02:00.086Z,88.84
2023-11-18T02:02:39.205Z,89.34
2023-11-18T02:03:13.585Z,89.34
2023-11-18T02:03:48.503Z,89.09
2023-11-18T02:04:22.989Z,89.07
2023-11-18T02:04:56.818Z,89.04
2023-11-18T02:05:30.059Z,89.34
2023-11-18T02:06:05.995Z,89.52
2023-11-18T02:06:39.327Z,89.52
2023-11-18T02:07:16.179Z,89.46
2023-11-18T02:07:49.460Z,89.46
2023-11-18T02:08:23.202Z,89.42
2023-11-18T02:08:56.312Z,89.94
2023-11-18T02:09:30.305Z,89.59
2023-11-18T02:10:10.513Z,89.58
2023-11-18T02:10:51.679Z,89.67
2023-11-18T02:11:33.464Z,89.63
2023-11-18T02:12:30.646Z,89.76
2023-11-18T02:13:26.910Z,90.15
2023-11-18T02:14:05.822Z,89.90
2023-11-18T02:14:41.402Z,89.90
2023-11-18T02:15:15.635Z,89.92
2023-11-18T02:15:48.764Z,89.90
2023-11-18T02:16:23.807Z,90.14
2023-11-18T02:17:00.828Z,90.16
2023-11-18T02:17:35.629Z,90.33
2023-11-18T02:18:10.995Z,90.12
2023-11-18T02:18:44.486Z,90.43
2023-11-18T02:19:27.077Z,90.39
2023-11-18T02:20:01.690Z,90.59
2023-11-18T02:20:35.111Z,90.48
2023-11-18T02:21:09.359Z,90.25
2023-11-18T02:21:45.054Z,90.40
2023-11-18T02:22:18.805Z,90.15
2023-11-18T02:22:53.118Z,90.06
2023-11-18T02:23:29.453Z,90.12
2023-11-18T02:24:02.789Z,90.17
2023-11-18T02:24:38.777Z,90.30
2023-11-18T02:25:17.428Z,90.19
2023-11-18T02:25:50.684Z,90.37
2023-11-18T02:26:24.842Z,90.50
2023-11-18T02:26:58.798Z,90.22
2023-11-18T02:27:33.098Z,90.20
2023-11-18T02:28:06.127Z,90.28
2023-11-18T02:28:39.785Z,90.35
2023-11-18T02:29:13.153Z,90.39
2023-11-18T02:29:50.146Z,90.48
2023-11-18T02:30:24.183Z,90.40
2023-11-18T02:31:06.705Z,90.68
2023-11-18T02:31:40.284Z,90.48
2023-11-18T02:32:28.198Z,90.75
2023-11-18T02:33:08.612Z,90.37
2023-11-18T02:33:52.186Z,90.35
2023-11-18T02:34:31.541Z,90.40
2023-11-18T02:35:17.560Z,90.27
2023-11-18T02:35:58.408Z,90.30
2023-11-18T02:36:40.545Z,90.28
2023-11-18T02:37:13.946Z,90.28
2023-11-18T02:37:49.871Z,90.39
2023-11-18T02:38:29.108Z,90.37
2023-11-18T02:39:08.332Z,90.47
2023-11-18T02:39:45.008Z,90.27
2023-11-18T02:40:21.499Z,90.44
2023-11-18T02:41:00.770Z,90.38
2023-11-18T02:41:36.567Z,90.32
2023-11-18T02:42:13.673Z,90.34
2023-11-18T02:42:50.047Z,90.43
2023-11-18T02:43:25.345Z,90.28
2023-11-18T02:44:00.154Z,90.38
2023-11-18T02:44:34.611Z,90.33
2023-11-18T02:45:09.936Z,90.22
2023-11-18T02:45:45.078Z,90.21
2023-11-18T02:46:18.925Z,90.02
2023-11-18T02:46:52.558Z,90.30
2023-11-18T02:47:28.104Z,90.48
2023-11-18T02:48:01.668Z,90.44
2023-11-18T02:48:37.566Z,90.40
2023-11-18T02:49:11.247Z,90.29
2023-11-18T02:49:44.443Z,90.31
2023-11-18T02:50:20.591Z,90.30
2023-11-18T02:50:54.339Z,90.21
2023-11-18T02:51:27.602Z,90.10
2023-11-18T02:52:01.060Z,90.16
2023-11-18T02:52:37.871Z,90.17
2023-11-18T02:53:13.636Z,90.13
2023-11-18T02:53:47.034Z,90.19
2023-11-18T02:54:21.162Z,90.19
2023-11-18T02:54:55.210Z,90.13
2023-11-18T02:55:28.850Z,90.03
2023-11-18T02:56:06.069Z,90.08
2023-11-18T02:56:39.543Z,90.00
2023-11-18T02:57:15.167Z,89.96
2023-11-18T02:57:48.699Z,89.87
2023-11-18T02:58:22.218Z,89.92
2023-11-18T02:58:57.994Z,90.03
2023-11-18T02:59:32.124Z,89.85
2023-11-18T03:00:38.425Z,89.85
2023-11-18T03:01:13.523Z,89.73
2023-11-18T03:01:47.231Z,90.00
2023-11-18T03:02:22.286Z,90.02
2023-11-18T03:02:56.131Z,90.00
2023-11-18T03:03:29.964Z,90.01
2023-11-18T03:04:03.948Z,89.91
2023-11-18T03:04:37.262Z,90.03
2023-11-18T03:05:13.120Z,90.19
2023-11-18T03:05:46.958Z,89.95
2023-11-18T03:06:20.469Z,89.90
2023-11-18T03:06:53.666Z,89.85
2023-11-18T03:07:28.302Z,89.89
2023-11-18T03:08:02.190Z,89.80
2023-11-18T03:08:35.555Z,89.86
2023-11-18T03:09:11.152Z,89.81
2023-11-18T03:09:44.362Z,89.94
2023-11-18T03:10:24.322Z,90.16
2023-11-18T03:10:58.614Z,90.06
2023-11-18T03:11:32.433Z,89.89
2023-11-18T03:12:08.972Z,89.94
2023-11-18T03:12:42.002Z,90.07
2023-11-18T03:13:15.131Z,90.03
2023-11-18T03:13:48.560Z,90.22
2023-11-18T03:14:22.072Z,90.06
2023-11-18T03:14:55.800Z,89.99
2023-11-18T03:15:30.023Z,90.04
2023-11-18T03:16:05.380Z,90.11
2023-11-18T03:16:40.120Z,89.99
2023-11-18T03:17:13.316Z,90.04
2023-11-18T03:17:51.749Z,89.93
2023-11-18T03:18:25.441Z,89.93
2023-11-18T03:19:00.192Z,89.91
2023-11-18T03:19:35.874Z,90.15
2023-11-18T03:20:09.851Z,90.11
2023-11-18T03:20:43.082Z,90.17
2023-11-18T03:21:16.193Z,90.08
2023-11-18T03:21:54.477Z,90.04
2023-11-18T03:22:27.951Z,89.83
2023-11-18T03:23:04.603Z,89.93
2023-11-18T03:23:37.656Z,90.09
2023-11-18T03:24:10.634Z,90.08
2023-11-18T03:24:44.071Z,90.03
2023-11-18T03:25:18.317Z,89.77
2023-11-18T03:25:52.886Z,90.17
2023-11-18T03:26:27.271Z,90.02
2023-11-18T03:27:00.644Z,89.89
2023-11-18T03:27:34.177Z,90.14
2023-11-18T03:28:08.005Z,89.93
2023-11-18T03:28:41.841Z,90.07
2023-11-18T03:29:14.933Z,90.14
2023-11-18T03:29:48.164Z,90.20
2023-11-18T03:30:22.453Z,90.14
2023-11-18T03:30:55.798Z,90.07
2023-11-18T03:31:30.392Z,90.02
2023-11-18T03:32:05.000Z,90.26
2023-11-18T03:32:40.087Z,90.16
2023-11-18T03:33:13.677Z,90.31
2023-11-18T03:33:46.964Z,90.26
2023-11-18T03:34:24.095Z,90.12
2023-11-18T03:35:00.641Z,89.99
2023-11-18T03:35:34.117Z,90.34
2023-11-18T03:36:08.056Z,90.05
2023-11-18T03:36:41.268Z,90.22
2023-11-18T03:37:14.496Z,90.21
2023-11-18T03:37:47.622Z,90.19
2023-11-18T03:38:21.101Z,90.21
2023-11-18T03:38:54.720Z,90.30
2023-11-18T03:39:28.684Z,90.35
2023-11-18T03:40:02.171Z,90.09
2023-11-18T03:40:36.537Z,90.26
2023-11-18T03:41:10.017Z,90.36
2023-11-18T03:41:45.616Z,90.30
2023-11-18T03:42:18.982Z,90.26
2023-11-18T03:42:52.355Z,90.37
2023-11-18T03:43:25.738Z,90.22
2023-11-18T03:43:59.721Z,90.29
2023-11-18T03:44:33.776Z,90.49
2023-11-18T03:45:07.665Z,90.25
2023-11-18T03:45:41.572Z,90.39
2023-11-18T03:46:16.783Z,90.08
2023-11-18T03:46:50.087Z,90.12
2023-11-18T03:47:25.276Z,90.12
2023-11-18T03:47:58.562Z,90.28
2023-11-18T03:48:31.778Z,90.42
2023-11-18T03:49:05.131Z,90.16
2023-11-18T03:49:38.356Z,90.16
2023-11-18T03:50:14.319Z,90.31
2023-11-18T03:50:50.902Z,90.47
2023-11-18T03:51:24.533Z,90.28
2023-11-18T03:51:59.076Z,90.15
2023-11-18T03:52:32.542Z,90.29
2023-11-18T03:53:06.336Z,90.27
2023-11-18T03:53:40.854Z,90.08
2023-11-18T03:54:15.248Z,90.06
2023-11-18T03:54:51.156Z,90.20
2023-11-18T03:55:25.160Z,90.31
2023-11-18T03:56:01.107Z,90.23
2023-11-18T03:56:34.939Z,90.19
2023-11-18T03:57:08.345Z,90.24
2023-11-18T03:57:43.790Z,90.29
2023-11-18T03:58:17.433Z,90.26
2023-11-18T03:58:50.788Z,90.38
2023-11-18T03:59:24.272Z,90.49
2023-11-18T03:59:57.663Z,90.23
2023-11-18T04:00:33.011Z,90.46
2023-11-18T04:01:07.620Z,90.51
2023-11-18T04:01:42.691Z,90.43
2023-11-18T04:02:15.879Z,90.47
2023-11-18T04:02:49.261Z,90.39
2023-11-18T04:03:22.362Z,90.65
2023-11-18T04:03:55.643Z,90.68
2023-11-18T04:04:28.738Z,90.68
2023-11-18T04:05:02.034Z,90.65
2023-11-18T04:05:36.115Z,90.58
2023-11-18T04:06:10.598Z,90.48
2023-11-18T04:06:44.645Z,90.54
2023-11-18T04:07:18.297Z,90.63
2023-11-18T04:07:51.915Z,90.51
2023-11-18T04:08:25.016Z,90.34
2023-11-18T04:08:58.853Z,90.37
2023-11-18T04:09:32.548Z,90.61
2023-11-18T04:10:11.359Z,90.57
2023-11-18T04:10:44.573Z,90.48
2023-11-18T04:11:18.260Z,90.45
2023-11-18T04:11:52.512Z,90.64
2023-11-18T04:12:27.917Z,90.57
2023-11-18T04:13:01.169Z,90.53
2023-11-18T04:13:34.303Z,90.47
2023-11-18T04:14:09.012Z,90.62
2023-11-18T04:14:42.196Z,90.67
2023-11-18T04:15:16.660Z,90.44
2023-11-18T04:15:49.722Z,90.47
2023-11-18T04:16:22.892Z,90.42
2023-11-18T04:16:57.118Z,90.46
2023-11-18T04:17:33.667Z,90.68
2023-11-18T04:18:08.106Z,90.44
2023-11-18T04:18:44.517Z,90.53
2023-11-18T04:19:17.761Z,90.35
2023-11-18T04:19:51.315Z,90.43
2023-11-18T04:20:24.794Z,90.24
2023-11-18T04:20:59.859Z,90.47
2023-11-18T04:21:33.327Z,90.28
2023-11-18T04:22:06.747Z,90.38
2023-11-18T04:22:42.556Z,90.21
2023-11-18T04:23:15.734Z,90.27
2023-11-18T04:23:49.992Z,90.42
2023-11-18T04:24:23.141Z,90.45
2023-11-18T04:24:56.517Z,90.29
2023-11-18T04:25:33.250Z,90.35
2023-11-18T04:26:08.654Z,90.34
2023-11-18T04:26:43.024Z,90.30
2023-11-18T04:27:16.395Z,90.28
2023-11-18T04:27:49.942Z,90.41
2023-11-18T04:28:24.087Z,90.49
2023-11-18T04:28:57.406Z,90.56
2023-11-18T04:29:31.388Z,90.54
2023-11-18T04:30:06.574Z,90.48
2023-11-18T04:30:42.256Z,90.34
2023-11-18T04:31:17.108Z,90.36
2023-11-18T04:31:50.674Z,90.32
2023-11-18T04:32:23.988Z,90.29
2023-11-18T04:32:57.191Z,90.44
2023-11-18T04:33:30.949Z,90.37
2023-11-18T04:34:05.750Z,90.22
2023-11-18T04:34:39.734Z,90.27
2023-11-18T04:35:14.030Z,90.39
2023-11-18T04:35:48.400Z,90.31
2023-11-18T04:36:23.251Z,90.32
2023-11-18T04:36:56.378Z,90.06
2023-11-18T04:37:30.308Z,90.03
2023-11-18T04:38:03.889Z,90.15
2023-11-18T04:38:37.506Z,90.18
2023-11-18T04:39:13.302Z,90.35
2023-11-18T04:39:47.402Z,90.25
2023-11-18T04:40:20.767Z,90.20
2023-11-18T04:40:55.556Z,90.22
2023-11-18T04:41:28.823Z,90.27
2023-11-18T04:42:02.618Z,90.27
2023-11-18T04:42:35.761Z,90.32
2023-11-18T04:43:09.286Z,90.16
2023-11-18T04:43:46.060Z,90.35
2023-11-18T04:44:19.926Z,90.11
2023-11-18T04:44:53.392Z,90.03
2023-11-18T04:45:26.528Z,90.21
2023-11-18T04:46:00.712Z,90.19
2023-11-18T04:46:34.094Z,90.16
2023-11-18T04:47:08.048Z,90.19
2023-11-18T04:47:43.006Z,90.09
2023-11-18T04:48:17.540Z,90.04
2023-11-18T04:48:50.810Z,90.15
2023-11-18T04:49:24.711Z,89.90
2023-11-18T04:49:58.075Z,90.07
2023-11-18T04:50:32.247Z,90.18
2023-11-18T04:51:05.672Z,90.09
2023-11-18T04:51:38.798Z,90.03
2023-11-18T04:52:12.529Z,89.97
2023-11-18T04:52:45.794Z,90.06
2023-11-18T04:53:19.024Z,90.04
2023-11-18T04:53:52.089Z,89.98
2023-11-18T04:54:25.484Z,89.90
2023-11-18T04:54:59.992Z,90.06
2023-11-18T04:55:33.085Z,90.08
2023-11-18T04:56:10.710Z,90.04
2023-11-18T04:56:45.689Z,90.08
2023-11-18T04:57:19.057Z,90.24
2023-11-18T04:57:52.178Z,90.09
2023-11-18T04:58:25.199Z,90.38
2023-11-18T04:58:58.413Z,90.02
2023-11-18T04:59:32.294Z,90.13
2023-11-18T05:00:12.211Z,90.07
2023-11-18T05:00:46.312Z,90.34
2023-11-18T05:01:19.628Z,90.10
2023-11-18T05:01:54.446Z,90.13
2023-11-18T05:02:27.836Z,90.02
2023-11-18T05:03:01.802Z,90.14
2023-11-18T05:03:37.876Z,90.20
2023-11-18T05:04:12.157Z,90.11
2023-11-18T05:04:45.389Z,90.03
2023-11-18T05:05:19.338Z,90.06
2023-11-18T05:05:55.223Z,90.15
2023-11-18T05:06:30.373Z,89.95
2023-11-18T05:07:04.128Z,89.98
2023-11-18T05:07:37.535Z,90.04
2023-11-18T05:08:22.806Z,89.75
2023-11-18T05:08:56.050Z,90.13
2023-11-18T05:09:29.351Z,89.86
2023-11-18T05:10:04.369Z,89.80
2023-11-18T05:10:37.719Z,90.05
2023-11-18T05:11:10.967Z,89.98
2023-11-18T05:11:44.198Z,89.90
2023-11-18T05:12:17.808Z,89.87
2023-11-18T05:12:57.044Z,89.83
2023-11-18T05:13:30.931Z,89.75
2023-11-18T05:14:08.503Z,89.70
2023-11-18T05:14:41.772Z,89.74
2023-11-18T05:15:15.784Z,89.61
2023-11-18T05:15:49.694Z,89.73
2023-11-18T05:16:23.462Z,89.66
2023-11-18T05:16:57.181Z,89.82
2023-11-18T05:17:31.425Z,89.62
2023-11-18T05:18:06.387Z,89.72
2023-11-18T05:18:40.208Z,89.70
2023-11-18T05:19:13.608Z,89.77
2023-11-18T05:19:46.712Z,89.96
2023-11-18T05:20:20.536Z,89.72
2023-11-18T05:20:55.597Z,89.60
2023-11-18T05:21:29.159Z,89.65
2023-11-18T05:22:02.523Z,89.76
2023-11-18T05:22:38.075Z,89.63
2023-11-18T05:23:11.744Z,89.70
2023-11-18T05:23:44.944Z,89.71
2023-11-18T05:24:18.533Z,89.77
2023-11-18T05:24:51.619Z,89.52
2023-11-18T05:25:25.925Z,89.58
2023-11-18T05:26:02.334Z,89.78
2023-11-18T05:26:36.268Z,89.61
2023-11-18T05:27:10.038Z,89.68
2023-11-18T05:27:44.350Z,89.64
2023-11-18T05:28:17.638Z,89.74
2023-11-18T05:28:51.362Z,89.94
2023-11-18T05:29:25.205Z,89.95
2023-11-18T05:30:00.538Z,89.87
2023-11-18T05:30:34.016Z,89.91
2023-11-18T05:31:07.604Z,89.61
2023-11-18T05:31:41.157Z,89.49
2023-11-18T05:32:14.544Z,89.58
2023-11-18T05:32:47.894Z,89.74
2023-11-18T05:33:21.792Z,89.61
2023-11-18T05:33:56.880Z,89.64
2023-11-18T05:34:38.468Z,89.64
2023-11-18T05:35:13.173Z,89.76
2023-11-18T05:35:52.744Z,89.64
2023-11-18T05:36:30.414Z,89.56
2023-11-18T05:37:03.833Z,89.72
2023-11-18T05:37:39.362Z,89.54
2023-11-18T05:38:14.566Z,89.55
2023-11-18T05:38:49.639Z,89.99
2023-11-18T05:39:25.495Z,89.73
2023-11-18T05:40:07.806Z,89.64
2023-11-18T05:40:45.078Z,89.71
2023-11-18T05:41:24.829Z,89.69
2023-11-18T05:41:59.390Z,89.77
2023-11-18T05:42:32.657Z,89.62
2023-11-18T05:43:17.590Z,89.83
2023-11-18T05:43:53.002Z,89.97
2023-11-18T05:44:31.881Z,89.91
2023-11-18T05:45:05.926Z,89.80
2023-11-18T05:45:56.562Z,89.82
2023-11-18T05:46:31.463Z,89.92
2023-11-18T05:47:05.201Z,89.90
2023-11-18T05:47:38.623Z,89.93
2023-11-18T05:48:14.352Z,89.92
2023-11-18T05:48:49.633Z,89.76
2023-11-18T05:49:24.033Z,89.77
2023-11-18T05:49:57.213Z,89.86
2023-11-18T05:50:31.008Z,89.75
2023-11-18T05:51:04.205Z,89.65
2023-11-18T05:51:37.290Z,89.79
2023-11-18T05:52:10.252Z,89.84
2023-11-18T05:52:45.743Z,89.67
2023-11-18T05:53:18.935Z,89.79
2023-11-18T05:53:53.322Z,89.82
2023-11-18T05:54:26.844Z,89.65
2023-11-18T05:54:59.969Z,89.76
2023-11-18T05:55:34.128Z,89.96
2023-11-18T05:56:09.062Z,89.85
2023-11-18T05:56:42.421Z,89.91
2023-11-18T05:57:18.797Z,89.79
2023-11-18T05:57:53.676Z,89.69
2023-11-18T05:58:27.017Z,90.04
2023-11-18T05:59:00.504Z,90.00
2023-11-18T05:59:34.106Z,89.92
2023-11-18T06:00:10.362Z,89.73
2023-11-18T06:00:45.866Z,89.93
2023-11-18T06:01:19.966Z,89.95
2023-11-18T06:01:53.208Z,89.74
2023-11-18T06:02:26.432Z,89.96
2023-11-18T06:02:59.853Z,89.77
2023-11-18T06:03:33.638Z,89.86
2023-11-18T06:04:09.566Z,89.82
2023-11-18T06:04:43.340Z,89.92
2023-11-18T06:05:17.244Z,89.90
2023-11-18T06:05:51.320Z,89.70
2023-11-18T06:06:25.220Z,89.80
2023-11-18T06:06:58.603Z,89.89
2023-11-18T06:07:32.250Z,89.63
2023-11-18T06:08:06.142Z,89.96
2023-11-18T06:08:42.896Z,89.88
2023-11-18T06:09:21.849Z,89.83
2023-11-18T06:09:55.043Z,89.78
2023-11-18T06:10:29.535Z,90.00
2023-11-18T06:11:13.971Z,89.70
2023-11-18T06:11:51.082Z,89.83
2023-11-18T06:12:24.414Z,90.10
2023-11-18T06:12:59.626Z,90.00
2023-11-18T06:13:33.365Z,89.97
2023-11-18T06:14:09.656Z,89.91
2023-11-18T06:14:43.413Z,90.08
2023-11-18T06:15:20.214Z,89.94
2023-11-18T06:15:54.867Z,90.01
2023-11-18T06:16:28.444Z,90.10
2023-11-18T06:17:01.866Z,89.88
2023-11-18T06:17:35.660Z,89.95
2023-11-18T06:18:09.812Z,89.84
2023-11-18T06:18:46.805Z,89.86
2023-11-18T06:19:22.411Z,90.03
2023-11-18T06:19:56.099Z,89.98
2023-11-18T06:20:29.793Z,89.86
2023-11-18T06:21:04.779Z,89.94
2023-11-18T06:21:38.874Z,90.04
2023-11-18T06:22:14.852Z,89.77
2023-11-18T06:22:48.077Z,89.98
2023-11-18T06:23:22.611Z,90.15
2023-11-18T06:23:56.590Z,90.04
2023-11-18T06:24:29.904Z,90.07
2023-11-18T06:25:03.841Z,89.95
2023-11-18T06:25:37.388Z,89.87
2023-11-18T06:26:14.344Z,90.12
2023-11-18T06:26:48.086Z,89.91
2023-11-18T06:27:24.424Z,89.91
2023-11-18T06:27:59.321Z,89.83
2023-11-18T06:28:35.095Z,90.06
2023-11-18T06:29:08.443Z,90.11
2023-11-18T06:29:41.685Z,89.99
2023-11-18T06:30:17.168Z,90.21
2023-11-18T06:30:50.823Z,90.31
2023-11-18T06:31:25.488Z,90.14
2023-11-18T06:32:01.362Z,90.10
2023-11-18T06:32:35.056Z,90.01
2023-11-18T06:33:08.363Z,89.86
2023-11-18T06:33:46.888Z,90.13
2023-11-18T06:34:22.120Z,90.16
2023-11-18T06:34:56.480Z,90.08
2023-11-18T06:35:30.821Z,90.09
2023-11-18T06:36:05.185Z,90.02
2023-11-18T06:36:38.423Z,90.19
2023-11-18T06:37:13.086Z,90.02
2023-11-18T06:37:49.175Z,90.22
2023-11-18T06:38:22.533Z,90.31
2023-11-18T06:38:57.354Z,90.27
2023-11-18T06:39:31.086Z,90.11
2023-11-18T06:40:07.799Z,90.14
2023-11-18T06:40:41.495Z,90.32
2023-11-18T06:41:19.622Z,90.36
2023-11-18T06:41:53.187Z,90.35
2023-11-18T06:42:27.247Z,90.43
2023-11-18T06:43:04.043Z,90.19
2023-11-18T06:43:53.607Z,90.55
2023-11-18T06:44:27.340Z,90.47
2023-11-18T06:45:00.404Z,90.43
2023-11-18T06:45:33.883Z,90.54
2023-11-18T06:46:13.988Z,90.53
2023-11-18T06:46:47.574Z,90.56
2023-11-18T06:47:21.839Z,90.47
2023-11-18T06:47:55.873Z,90.44
2023-11-18T06:48:29.554Z,90.56
2023-11-18T06:49:05.405Z,90.40
2023-11-18T06:49:38.849Z,90.45
2023-11-18T06:50:15.479Z,90.78
2023-11-18T06:50:48.838Z,90.45
2023-11-18T06:51:29.260Z,90.45
2023-11-18T06:52:05.096Z,90.57
2023-11-18T06:52:39.962Z,90.69
2023-11-18T06:53:13.679Z,90.51
2023-11-18T06:53:46.995Z,90.53
2023-11-18T06:54:20.045Z,90.57
2023-11-18T06:54:57.413Z,90.58
2023-11-18T06:55:30.995Z,90.63
2023-11-18T06:56:04.753Z,90.65
2023-11-18T06:56:39.459Z,90.53
2023-11-18T06:57:13.757Z,90.54
2023-11-18T06:57:47.499Z,90.43
2023-11-18T06:58:21.006Z,90.53
2023-11-18T06:58:55.296Z,90.56
2023-11-18T06:59:29.060Z,90.71
2023-11-18T07:00:02.652Z,90.50
2023-11-18T07:00:38.155Z,90.58
2023-11-18T07:01:14.940Z,90.62
2023-11-18T07:01:48.796Z,90.42
2023-11-18T07:02:22.261Z,90.42
2023-11-18T07:02:55.918Z,90.37
2023-11-18T07:03:29.108Z,90.37
2023-11-18T07:04:02.729Z,90.32
2023-11-18T07:04:36.585Z,90.25
2023-11-18T07:05:10.267Z,90.28
2023-11-18T07:05:44.481Z,90.46
2023-11-18T07:06:24.098Z,90.07
2023-11-18T07:06:58.179Z,90.38
2023-11-18T07:07:31.621Z,90.35
2023-11-18T07:08:05.381Z,90.38
2023-11-18T07:08:39.314Z,90.11
2023-11-18T07:09:19.675Z,90.49
2023-11-18T07:09:53.413Z,90.44
2023-11-18T07:10:28.815Z,90.49
2023-11-18T07:11:03.771Z,90.47
2023-11-18T07:11:36.938Z,90.57
2023-11-18T07:12:10.266Z,90.51
2023-11-18T07:12:43.891Z,90.63
2023-11-18T07:13:17.663Z,90.50
2023-11-18T07:13:50.976Z,90.54
2023-11-18T07:14:24.417Z,90.71
2023-11-18T07:14:58.107Z,90.39
2023-11-18T07:15:31.763Z,90.44
2023-11-18T07:16:06.789Z,90.42
2023-11-18T07:16:41.276Z,90.74
2023-11-18T07:17:15.023Z,90.78
2023-11-18T07:17:48.685Z,90.53
2023-11-18T07:18:23.370Z,90.82
2023-11-18T07:18:56.536Z,91.04
2023-11-18T07:19:30.281Z,90.86
2023-11-18T07:20:07.164Z,90.86
2023-11-18T07:20:40.425Z,90.85
2023-11-18T07:21:15.527Z,91.07
2023-11-18T07:21:50.429Z,91.05
2023-11-18T07:22:26.341Z,91.03
2023-11-18T07:23:00.176Z,90.99
2023-11-18T07:23:34.023Z,91.00
2023-11-18T07:24:07.933Z,91.02
2023-11-18T07:24:41.275Z,91.09
2023-11-18T07:25:14.464Z,90.87
2023-11-18T07:25:49.989Z,91.03
2023-11-18T07:26:23.582Z,90.92
2023-11-18T07:26:56.722Z,90.71
2023-11-18T07:27:29.879Z,90.73